sensor_id;sensor_type;location;lat;lon;timestamp;pressure;altitude;pressure_sealevel;temperature;humidity
6567;BME280;3317;43.994;22.878;2022-07-22T00:02:19;100765.84;;;32.00;28.92
6567;BME280;3317;43.994;22.878;2022-07-22T00:04:46;100765.59;;;31.96;28.42
6567;BME280;3317;43.994;22.878;2022-07-22T00:07:13;100765.91;;;31.95;28.75
6567;BME280;3317;43.994;22.878;2022-07-22T00:09:41;100761.75;;;31.92;28.96
6567;BME280;3317;43.994;22.878;2022-07-22T00:12:08;100763.44;;;31.88;29.21
6567;BME280;3317;43.994;22.878;2022-07-22T00:14:35;100765.19;;;31.84;29.48
6567;BME280;3317;43.994;22.878;2022-07-22T00:17:02;100767.47;;;31.82;29.18
6567;BME280;3317;43.994;22.878;2022-07-22T00:19:29;100778.38;;;31.78;29.65
6567;BME280;3317;43.994;22.878;2022-07-22T00:21:56;100775.34;;;31.74;29.44
6567;BME280;3317;43.994;22.878;2022-07-22T00:24:23;100775.41;;;31.69;28.48
6567;BME280;3317;43.994;22.878;2022-07-22T00:26:52;100779.19;;;31.54;29.13
6567;BME280;3317;43.994;22.878;2022-07-22T00:29:19;100781.84;;;31.40;29.00
6567;BME280;3317;43.994;22.878;2022-07-22T00:31:46;100780.00;;;31.20;29.63
6567;BME280;3317;43.994;22.878;2022-07-22T00:34:13;100747.84;;;30.88;28.92
6567;BME280;3317;43.994;22.878;2022-07-22T00:36:40;100791.31;;;31.10;29.30
6567;BME280;3317;43.994;22.878;2022-07-22T00:39:07;100798.31;;;31.07;30.01
6567;BME280;3317;43.994;22.878;2022-07-22T00:41:34;100793.34;;;30.99;30.76
6567;BME280;3317;43.994;22.878;2022-07-22T00:44:04;100792.53;;;30.93;31.17
6567;BME280;3317;43.994;22.878;2022-07-22T00:46:32;100807.72;;;30.82;31.26
6567;BME280;3317;43.994;22.878;2022-07-22T00:49:00;100812.53;;;30.76;31.25
6567;BME280;3317;43.994;22.878;2022-07-22T00:51:28;100803.06;;;30.67;31.43
6567;BME280;3317;43.994;22.878;2022-07-22T00:53:56;100814.25;;;30.67;31.35
6567;BME280;3317;43.994;22.878;2022-07-22T00:56:24;100813.41;;;30.61;31.84
6567;BME280;3317;43.994;22.878;2022-07-22T00:58:53;100819.28;;;30.59;31.39
6567;BME280;3317;43.994;22.878;2022-07-22T01:01:22;100824.06;;;30.59;31.14
6567;BME280;3317;43.994;22.878;2022-07-22T01:03:49;100822.66;;;30.56;32.13
6567;BME280;3317;43.994;22.878;2022-07-22T01:06:16;100831.63;;;30.53;31.94
6567;BME280;3317;43.994;22.878;2022-07-22T01:08:43;100831.38;;;30.49;31.77
6567;BME280;3317;43.994;22.878;2022-07-22T01:11:11;100824.69;;;30.45;32.51
6567;BME280;3317;43.994;22.878;2022-07-22T01:13:39;100836.41;;;30.42;32.18
6567;BME280;3317;43.994;22.878;2022-07-22T01:16:07;100832.81;;;30.42;32.23
6567;BME280;3317;43.994;22.878;2022-07-22T01:18:36;100839.78;;;30.39;32.62
6567;BME280;3317;43.994;22.878;2022-07-22T01:21:06;100824.44;;;30.31;32.41
6567;BME280;3317;43.994;22.878;2022-07-22T01:23:34;100832.03;;;30.31;32.53
6567;BME280;3317;43.994;22.878;2022-07-22T01:26:01;100837.59;;;30.26;32.38
6567;BME280;3317;43.994;22.878;2022-07-22T01:28:28;100842.69;;;30.18;32.97
6567;BME280;3317;43.994;22.878;2022-07-22T01:30:55;100832.66;;;30.07;33.23
6567;BME280;3317;43.994;22.878;2022-07-22T01:33:22;100836.56;;;30.06;33.19
6567;BME280;3317;43.994;22.878;2022-07-22T01:35:50;100839.63;;;30.04;33.33
6567;BME280;3317;43.994;22.878;2022-07-22T01:38:19;100844.38;;;29.99;33.65
6567;BME280;3317;43.994;22.878;2022-07-22T01:40:46;100840.16;;;29.96;33.46
6567;BME280;3317;43.994;22.878;2022-07-22T01:43:13;100838.81;;;29.93;33.57
6567;BME280;3317;43.994;22.878;2022-07-22T01:45:43;100827.66;;;29.83;33.34
6567;BME280;3317;43.994;22.878;2022-07-22T01:48:10;100842.72;;;29.92;33.65
6567;BME280;3317;43.994;22.878;2022-07-22T01:50:37;100813.97;;;29.71;33.66
6567;BME280;3317;43.994;22.878;2022-07-22T01:53:04;100849.97;;;29.93;33.54
6567;BME280;3317;43.994;22.878;2022-07-22T01:55:33;100846.91;;;29.85;34.03
6567;BME280;3317;43.994;22.878;2022-07-22T01:58:00;100860.59;;;29.91;33.65
6567;BME280;3317;43.994;22.878;2022-07-22T02:00:28;100872.84;;;29.90;33.62
6567;BME280;3317;43.994;22.878;2022-07-22T02:02:55;100862.81;;;29.89;33.70
6567;BME280;3317;43.994;22.878;2022-07-22T02:05:22;100868.41;;;29.89;33.48
6567;BME280;3317;43.994;22.878;2022-07-22T02:07:49;100866.44;;;29.90;33.37
6567;BME280;3317;43.994;22.878;2022-07-22T02:10:16;100871.19;;;29.89;33.32
6567;BME280;3317;43.994;22.878;2022-07-22T02:12:45;100863.94;;;29.83;33.71
6567;BME280;3317;43.994;22.878;2022-07-22T02:15:12;100872.59;;;29.87;33.63
6567;BME280;3317;43.994;22.878;2022-07-22T02:17:39;100882.38;;;29.84;34.21
6567;BME280;3317;43.994;22.878;2022-07-22T02:20:06;100875.97;;;29.78;34.04
6567;BME280;3317;43.994;22.878;2022-07-22T02:22:34;100871.75;;;29.76;33.71
6567;BME280;3317;43.994;22.878;2022-07-22T02:25:02;100866.75;;;29.68;34.00
6567;BME280;3317;43.994;22.878;2022-07-22T02:27:29;100879.31;;;29.70;33.90
6567;BME280;3317;43.994;22.878;2022-07-22T02:29:58;100868.97;;;29.60;34.29
6567;BME280;3317;43.994;22.878;2022-07-22T02:32:25;100878.75;;;29.63;34.47
6567;BME280;3317;43.994;22.878;2022-07-22T02:34:52;100874.00;;;29.58;34.25
6567;BME280;3317;43.994;22.878;2022-07-22T02:37:19;100881.84;;;29.56;33.72
6567;BME280;3317;43.994;22.878;2022-07-22T02:39:46;100886.28;;;29.52;34.08
6567;BME280;3317;43.994;22.878;2022-07-22T02:42:13;100884.91;;;29.49;34.21
6567;BME280;3317;43.994;22.878;2022-07-22T02:44:40;100890.19;;;29.46;34.45
6567;BME280;3317;43.994;22.878;2022-07-22T02:47:09;100900.22;;;29.42;33.89
6567;BME280;3317;43.994;22.878;2022-07-22T02:49:35;100897.69;;;29.40;33.89
6567;BME280;3317;43.994;22.878;2022-07-22T02:52:03;100885.16;;;29.27;34.65
6567;BME280;3317;43.994;22.878;2022-07-22T02:54:30;100909.13;;;29.33;34.78
6567;BME280;3317;43.994;22.878;2022-07-22T02:56:57;100908.03;;;29.29;34.62
6567;BME280;3317;43.994;22.878;2022-07-22T02:59:24;100919.72;;;29.26;34.74
6567;BME280;3317;43.994;22.878;2022-07-22T03:01:50;100922.50;;;29.26;34.71
6567;BME280;3317;43.994;22.878;2022-07-22T03:04:19;100915.81;;;29.22;34.78
6567;BME280;3317;43.994;22.878;2022-07-22T03:06:46;100919.72;;;29.16;35.01
6567;BME280;3317;43.994;22.878;2022-07-22T03:09:13;100914.66;;;29.13;35.12
6567;BME280;3317;43.994;22.878;2022-07-22T03:11:40;100918.56;;;29.06;35.39
6567;BME280;3317;43.994;22.878;2022-07-22T03:14:07;100924.16;;;29.01;35.35
6567;BME280;3317;43.994;22.878;2022-07-22T03:16:34;100923.00;;;28.97;35.35
6567;BME280;3317;43.994;22.878;2022-07-22T03:19:00;100929.13;;;28.94;35.34
6567;BME280;3317;43.994;22.878;2022-07-22T03:21:29;100924.09;;;28.91;35.28
6567;BME280;3317;43.994;22.878;2022-07-22T03:23:56;100926.34;;;28.89;35.56
6567;BME280;3317;43.994;22.878;2022-07-22T03:26:23;100935.50;;;28.84;35.67
6567;BME280;3317;43.994;22.878;2022-07-22T03:28:51;100929.09;;;28.84;35.46
6567;BME280;3317;43.994;22.878;2022-07-22T03:31:18;100941.03;;;28.79;35.64
6567;BME280;3317;43.994;22.878;2022-07-22T03:33:45;100941.00;;;28.74;35.85
6567;BME280;3317;43.994;22.878;2022-07-22T03:36:12;100945.16;;;28.71;35.81
6567;BME280;3317;43.994;22.878;2022-07-22T03:38:41;100950.75;;;28.71;35.85
6567;BME280;3317;43.994;22.878;2022-07-22T03:41:08;100953.53;;;28.71;36.11
6567;BME280;3317;43.994;22.878;2022-07-22T03:43:35;100959.97;;;28.72;36.06
6567;BME280;3317;43.994;22.878;2022-07-22T03:46:02;100932.56;;;28.58;35.98
6567;BME280;3317;43.994;22.878;2022-07-22T03:48:29;100963.00;;;28.70;36.11
6567;BME280;3317;43.994;22.878;2022-07-22T03:50:56;100958.28;;;28.71;36.09
6567;BME280;3317;43.994;22.878;2022-07-22T03:53:23;100955.50;;;28.71;36.23
6567;BME280;3317;43.994;22.878;2022-07-22T03:55:51;100964.69;;;28.71;36.05
6567;BME280;3317;43.994;22.878;2022-07-22T03:58:18;100963.56;;;28.72;36.16
6567;BME280;3317;43.994;22.878;2022-07-22T04:00:45;100963.31;;;28.74;35.86
6567;BME280;3317;43.994;22.878;2022-07-22T04:03:12;100971.97;;;28.77;35.91
6567;BME280;3317;43.994;22.878;2022-07-22T04:05:39;100977.00;;;28.80;35.95
6567;BME280;3317;43.994;22.878;2022-07-22T04:08:06;100966.44;;;28.83;36.28
6567;BME280;3317;43.994;22.878;2022-07-22T04:10:33;100957.53;;;28.86;35.90
6567;BME280;3317;43.994;22.878;2022-07-22T04:13:01;100970.97;;;28.89;35.93
6567;BME280;3317;43.994;22.878;2022-07-22T04:15:28;100970.09;;;28.93;35.98
6567;BME280;3317;43.994;22.878;2022-07-22T04:17:55;100970.97;;;28.99;35.88
6567;BME280;3317;43.994;22.878;2022-07-22T04:20:22;100971.00;;;29.04;35.94
6567;BME280;3317;43.994;22.878;2022-07-22T04:22:49;100972.69;;;29.11;35.80
6567;BME280;3317;43.994;22.878;2022-07-22T04:25:16;100979.13;;;29.16;36.12
6567;BME280;3317;43.994;22.878;2022-07-22T04:27:43;100980.00;;;29.22;35.91
6567;BME280;3317;43.994;22.878;2022-07-22T04:30:12;100985.59;;;29.32;35.76
6567;BME280;3317;43.994;22.878;2022-07-22T04:32:39;100960.75;;;29.26;35.78
6567;BME280;3317;43.994;22.878;2022-07-22T04:35:06;100985.09;;;29.46;35.84
6567;BME280;3317;43.994;22.878;2022-07-22T04:37:33;100989.31;;;29.54;35.79
6567;BME280;3317;43.994;22.878;2022-07-22T04:40:00;100994.34;;;29.62;36.04
6567;BME280;3317;43.994;22.878;2022-07-22T04:42:27;100988.78;;;29.72;35.73
6567;BME280;3317;43.994;22.878;2022-07-22T04:44:54;100977.59;;;29.83;35.54
6567;BME280;3317;43.994;22.878;2022-07-22T04:47:22;100987.38;;;29.90;35.55
6567;BME280;3317;43.994;22.878;2022-07-22T04:49:49;100995.78;;;30.01;35.48
6567;BME280;3317;43.994;22.878;2022-07-22T04:52:16;100996.66;;;30.12;35.23
6567;BME280;3317;43.994;22.878;2022-07-22T04:54:43;101000.53;;;30.21;35.39
6567;BME280;3317;43.994;22.878;2022-07-22T04:57:10;101006.97;;;30.32;35.30
6567;BME280;3317;43.994;22.878;2022-07-22T04:59:37;101007.78;;;30.43;35.19
6567;BME280;3317;43.994;22.878;2022-07-22T05:02:04;101004.13;;;30.58;34.72
6567;BME280;3317;43.994;22.878;2022-07-22T05:04:33;101003.28;;;30.68;34.89
6567;BME280;3317;43.994;22.878;2022-07-22T05:07:00;101010.00;;;30.77;34.65
6567;BME280;3317;43.994;22.878;2022-07-22T05:09:28;100952.16;;;30.46;34.70
6567;BME280;3317;43.994;22.878;2022-07-22T05:11:55;101018.84;;;31.00;34.67
6567;BME280;3317;43.994;22.878;2022-07-22T05:14:22;100958.25;;;30.74;34.48
6567;BME280;3317;43.994;22.878;2022-07-22T05:16:49;101017.91;;;31.20;34.61
6567;BME280;3317;43.994;22.878;2022-07-22T05:19:16;101020.13;;;31.33;34.58
6567;BME280;3317;43.994;22.878;2022-07-22T05:21:45;101017.25;;;31.44;34.32
6567;BME280;3317;43.994;22.878;2022-07-22T05:24:12;101015.25;;;31.55;33.72
6567;BME280;3317;43.994;22.878;2022-07-22T05:26:39;101015.75;;;31.67;34.08
6567;BME280;3317;43.994;22.878;2022-07-22T05:29:06;101015.13;;;31.81;34.12
6567;BME280;3317;43.994;22.878;2022-07-22T05:31:33;101020.34;;;31.93;33.50
6567;BME280;3317;43.994;22.878;2022-07-22T05:34:03;101025.28;;;32.06;33.25
6567;BME280;3317;43.994;22.878;2022-07-22T05:36:31;101020.66;;;32.21;33.24
6567;BME280;3317;43.994;22.878;2022-07-22T05:39:00;101023.91;;;32.33;32.85
6567;BME280;3317;43.994;22.878;2022-07-22T05:41:27;101022.44;;;32.46;32.70
6567;BME280;3317;43.994;22.878;2022-07-22T05:43:54;101027.91;;;32.56;32.69
6567;BME280;3317;43.994;22.878;2022-07-22T05:46:21;101029.19;;;32.69;31.82
6567;BME280;3317;43.994;22.878;2022-07-22T05:48:47;101030.22;;;32.79;31.76
6567;BME280;3317;43.994;22.878;2022-07-22T05:51:14;101034.69;;;32.80;31.09
6567;BME280;3317;43.994;22.878;2022-07-22T05:53:44;101017.31;;;32.78;31.60
6567;BME280;3317;43.994;22.878;2022-07-22T05:56:12;101024.63;;;33.03;30.98
6567;BME280;3317;43.994;22.878;2022-07-22T05:58:39;101039.13;;;33.10;31.22
6567;BME280;3317;43.994;22.878;2022-07-22T06:01:07;101037.09;;;33.16;30.99
6567;BME280;3317;43.994;22.878;2022-07-22T06:03:35;101036.91;;;33.32;30.40
6567;BME280;3317;43.994;22.878;2022-07-22T06:06:02;101031.31;;;33.51;30.38
6567;BME280;3317;43.994;22.878;2022-07-22T06:08:30;101035.56;;;33.67;30.05
6567;BME280;3317;43.994;22.878;2022-07-22T06:10:58;101047.28;;;33.75;29.71
6567;BME280;3317;43.994;22.878;2022-07-22T06:13:28;101031.84;;;33.72;29.61
6567;BME280;3317;43.994;22.878;2022-07-22T06:15:55;101044.50;;;33.89;29.44
6567;BME280;3317;43.994;22.878;2022-07-22T06:18:22;101039.81;;;34.03;29.00
6567;BME280;3317;43.994;22.878;2022-07-22T06:20:49;101036.06;;;34.08;28.62
6567;BME280;3317;43.994;22.878;2022-07-22T06:23:16;101042.44;;;34.13;28.77
6567;BME280;3317;43.994;22.878;2022-07-22T06:25:43;101054.53;;;33.95;28.38
6567;BME280;3317;43.994;22.878;2022-07-22T06:28:10;101050.13;;;33.69;28.50
6567;BME280;3317;43.994;22.878;2022-07-22T06:30:39;101032.56;;;33.39;29.18
6567;BME280;3317;43.994;22.878;2022-07-22T06:33:06;101033.16;;;33.17;29.47
6567;BME280;3317;43.994;22.878;2022-07-22T06:35:33;101046.72;;;33.10;29.97
6567;BME280;3317;43.994;22.878;2022-07-22T06:38:00;101047.06;;;33.03;30.24
6567;BME280;3317;43.994;22.878;2022-07-22T06:40:27;101016.75;;;32.76;30.44
6567;BME280;3317;43.994;22.878;2022-07-22T06:42:55;101045.25;;;32.88;30.89
6567;BME280;3317;43.994;22.878;2022-07-22T06:45:22;101018.75;;;32.99;30.99
6567;BME280;3317;43.994;22.878;2022-07-22T06:47:51;101043.69;;;33.25;30.53
6567;BME280;3317;43.994;22.878;2022-07-22T06:50:18;101042.47;;;33.56;30.52
6567;BME280;3317;43.994;22.878;2022-07-22T06:52:45;101027.81;;;33.78;29.92
6567;BME280;3317;43.994;22.878;2022-07-22T06:55:12;101046.13;;;33.95;29.52
6567;BME280;3317;43.994;22.878;2022-07-22T06:57:39;101032.34;;;34.12;29.42
6567;BME280;3317;43.994;22.878;2022-07-22T07:00:07;101043.75;;;34.02;29.03
6567;BME280;3317;43.994;22.878;2022-07-22T07:02:35;101039.91;;;33.98;29.52
6567;BME280;3317;43.994;22.878;2022-07-22T07:05:04;101024.94;;;33.83;29.11
6567;BME280;3317;43.994;22.878;2022-07-22T07:07:31;101042.28;;;34.24;29.14
6567;BME280;3317;43.994;22.878;2022-07-22T07:09:58;101052.72;;;34.71;28.30
6567;BME280;3317;43.994;22.878;2022-07-22T07:12:25;101047.81;;;34.90;28.06
6567;BME280;3317;43.994;22.878;2022-07-22T07:14:52;101039.91;;;35.20;28.13
6567;BME280;3317;43.994;22.878;2022-07-22T07:17:19;101041.44;;;35.41;27.92
6567;BME280;3317;43.994;22.878;2022-07-22T07:19:46;101035.25;;;35.66;27.72
6567;BME280;3317;43.994;22.878;2022-07-22T07:22:15;101036.97;;;35.99;27.55
6567;BME280;3317;43.994;22.878;2022-07-22T07:24:42;101038.50;;;36.19;27.54
6567;BME280;3317;43.994;22.878;2022-07-22T07:27:09;101042.59;;;36.36;27.19
6567;BME280;3317;43.994;22.878;2022-07-22T07:29:36;101043.13;;;36.47;26.88
6567;BME280;3317;43.994;22.878;2022-07-22T07:32:03;101048.97;;;36.50;26.79
6567;BME280;3317;43.994;22.878;2022-07-22T07:34:30;101051.56;;;36.38;26.02
6567;BME280;3317;43.994;22.878;2022-07-22T07:36:57;101037.91;;;36.31;26.75
6567;BME280;3317;43.994;22.878;2022-07-22T07:39:26;101046.66;;;36.53;26.55
6567;BME280;3317;43.994;22.878;2022-07-22T07:41:53;101046.94;;;36.74;26.13
6567;BME280;3317;43.994;22.878;2022-07-22T07:44:20;101041.38;;;36.91;26.22
6567;BME280;3317;43.994;22.878;2022-07-22T07:46:47;101043.09;;;37.10;25.86
6567;BME280;3317;43.994;22.878;2022-07-22T07:49:14;101047.13;;;37.27;25.81
6567;BME280;3317;43.994;22.878;2022-07-22T07:51:41;101047.66;;;37.38;25.55
6567;BME280;3317;43.994;22.878;2022-07-22T07:54:08;101044.69;;;37.60;25.65
6567;BME280;3317;43.994;22.878;2022-07-22T07:56:36;101051.19;;;37.61;25.44
6567;BME280;3317;43.994;22.878;2022-07-22T07:59:03;101051.66;;;37.37;24.61
6567;BME280;3317;43.994;22.878;2022-07-22T08:01:30;101034.28;;;37.03;25.63
6567;BME280;3317;43.994;22.878;2022-07-22T08:03:57;101052.44;;;37.19;25.37
6567;BME280;3317;43.994;22.878;2022-07-22T08:06:24;101051.16;;;37.43;25.22
6567;BME280;3317;43.994;22.878;2022-07-22T08:08:51;101051.53;;;37.68;25.48
6567;BME280;3317;43.994;22.878;2022-07-22T08:11:18;101046.88;;;37.90;25.37
6567;BME280;3317;43.994;22.878;2022-07-22T08:13:47;101052.84;;;38.15;25.61
6567;BME280;3317;43.994;22.878;2022-07-22T08:16:14;101047.97;;;38.51;24.50
6567;BME280;3317;43.994;22.878;2022-07-22T08:18:41;101047.47;;;38.40;23.91
6567;BME280;3317;43.994;22.878;2022-07-22T08:21:08;101040.34;;;38.34;24.08
6567;BME280;3317;43.994;22.878;2022-07-22T08:23:35;101049.47;;;38.48;24.26
6567;BME280;3317;43.994;22.878;2022-07-22T08:26:02;101045.72;;;38.74;24.50
6567;BME280;3317;43.994;22.878;2022-07-22T08:28:29;101043.41;;;39.06;24.26
6567;BME280;3317;43.994;22.878;2022-07-22T08:30:57;101047.06;;;39.37;23.47
6567;BME280;3317;43.994;22.878;2022-07-22T08:33:24;101053.03;;;39.65;23.54
6567;BME280;3317;43.994;22.878;2022-07-22T08:35:51;101050.75;;;40.01;23.27
6567;BME280;3317;43.994;22.878;2022-07-22T08:38:19;101049.03;;;40.21;22.28
6567;BME280;3317;43.994;22.878;2022-07-22T08:40:46;101047.66;;;40.27;21.98
6567;BME280;3317;43.994;22.878;2022-07-22T08:43:13;101055.47;;;40.31;21.53
6567;BME280;3317;43.994;22.878;2022-07-22T08:45:40;101053.59;;;40.35;21.98
6567;BME280;3317;43.994;22.878;2022-07-22T08:48:09;101051.00;;;40.30;21.74
6567;BME280;3317;43.994;22.878;2022-07-22T08:50:36;101055.00;;;40.07;22.13
6567;BME280;3317;43.994;22.878;2022-07-22T08:53:03;101052.91;;;40.17;22.55
6567;BME280;3317;43.994;22.878;2022-07-22T08:55:30;101059.25;;;40.35;21.83
6567;BME280;3317;43.994;22.878;2022-07-22T08:57:57;101053.97;;;40.46;21.92
6567;BME280;3317;43.994;22.878;2022-07-22T09:00:24;101046.75;;;40.48;21.54
6567;BME280;3317;43.994;22.878;2022-07-22T09:02:51;101048.19;;;40.42;22.00
6567;BME280;3317;43.994;22.878;2022-07-22T09:05:19;101047.00;;;40.55;22.15
6567;BME280;3317;43.994;22.878;2022-07-22T09:07:46;101053.75;;;40.51;21.91
6567;BME280;3317;43.994;22.878;2022-07-22T09:10:15;101052.31;;;40.57;21.90
6567;BME280;3317;43.994;22.878;2022-07-22T09:12:53;101062.84;;;40.44;21.82
6567;BME280;3317;43.994;22.878;2022-07-22T09:15:27;101061.09;;;39.84;22.09
6567;BME280;3317;43.994;22.878;2022-07-22T09:17:54;101056.75;;;39.57;22.77
6567;BME280;3317;43.994;22.878;2022-07-22T09:20:23;101042.81;;;39.52;23.01
6567;BME280;3317;43.994;22.878;2022-07-22T09:22:51;101050.03;;;39.83;23.21
6567;BME280;3317;43.994;22.878;2022-07-22T09:25:27;101052.50;;;39.93;22.43
6567;BME280;3317;43.994;22.878;2022-07-22T09:27:56;101047.06;;;39.79;22.51
6567;BME280;3317;43.994;22.878;2022-07-22T09:30:25;101042.31;;;39.92;22.70
6567;BME280;3317;43.994;22.878;2022-07-22T09:32:53;101046.81;;;39.93;22.45
6567;BME280;3317;43.994;22.878;2022-07-22T09:35:23;101039.91;;;40.16;22.81
6567;BME280;3317;43.994;22.878;2022-07-22T09:37:52;101008.88;;;40.32;22.71
6567;BME280;3317;43.994;22.878;2022-07-22T09:40:22;101023.25;;;40.73;22.02
6567;BME280;3317;43.994;22.878;2022-07-22T09:42:51;101027.16;;;41.05;22.36
6567;BME280;3317;43.994;22.878;2022-07-22T09:45:20;101027.63;;;41.32;21.22
6567;BME280;3317;43.994;22.878;2022-07-22T09:47:48;101023.69;;;41.37;21.30
6567;BME280;3317;43.994;22.878;2022-07-22T09:50:18;101032.53;;;41.48;21.53
6567;BME280;3317;43.994;22.878;2022-07-22T09:52:47;101031.25;;;41.45;20.02
6567;BME280;3317;43.994;22.878;2022-07-22T09:55:16;101026.66;;;41.16;20.56
6567;BME280;3317;43.994;22.878;2022-07-22T09:57:46;101016.75;;;41.22;21.10
6567;BME280;3317;43.994;22.878;2022-07-22T10:00:16;101027.94;;;41.43;20.90
6567;BME280;3317;43.994;22.878;2022-07-22T10:02:46;101016.25;;;41.32;20.05
6567;BME280;3317;43.994;22.878;2022-07-22T10:05:16;101026.41;;;41.46;20.56
6567;BME280;3317;43.994;22.878;2022-07-22T10:07:46;101024.94;;;41.64;20.38
6567;BME280;3317;43.994;22.878;2022-07-22T10:10:16;101009.56;;;41.82;20.34
6567;BME280;3317;43.994;22.878;2022-07-22T10:12:44;101007.94;;;42.09;20.33
6567;BME280;3317;43.994;22.878;2022-07-22T10:15:12;101010.22;;;42.35;20.08
6567;BME280;3317;43.994;22.878;2022-07-22T10:17:42;101013.28;;;42.43;19.22
6567;BME280;3317;43.994;22.878;2022-07-22T10:20:11;101008.25;;;42.52;19.81
6567;BME280;3317;43.994;22.878;2022-07-22T10:22:48;100975.16;;;42.31;19.65
6567;BME280;3317;43.994;22.878;2022-07-22T10:25:16;101008.97;;;42.49;18.91
6567;BME280;3317;43.994;22.878;2022-07-22T10:27:46;100998.19;;;42.26;18.86
6567;BME280;3317;43.994;22.878;2022-07-22T10:30:14;101009.88;;;41.92;19.55
6567;BME280;3317;43.994;22.878;2022-07-22T10:32:42;101008.94;;;41.88;19.49
6567;BME280;3317;43.994;22.878;2022-07-22T10:35:23;100998.31;;;42.01;19.89
6567;BME280;3317;43.994;22.878;2022-07-22T10:37:55;101009.44;;;42.35;20.28
6567;BME280;3317;43.994;22.878;2022-07-22T10:40:24;101000.03;;;42.67;19.08
6567;BME280;3317;43.994;22.878;2022-07-22T10:43:12;101013.78;;;43.13;19.82
6567;BME280;3317;43.994;22.878;2022-07-22T10:45:42;101012.41;;;43.42;19.15
6567;BME280;3317;43.994;22.878;2022-07-22T10:48:13;100998.41;;;43.53;18.55
6567;BME280;3317;43.994;22.878;2022-07-22T10:50:42;100998.97;;;43.62;18.21
6567;BME280;3317;43.994;22.878;2022-07-22T10:53:13;101002.97;;;43.78;18.80
6567;BME280;3317;43.994;22.878;2022-07-22T10:56:02;101001.69;;;43.95;17.73
6567;BME280;3317;43.994;22.878;2022-07-22T11:01:38;100995.16;;;43.55;18.21
6567;BME280;3317;43.994;22.878;2022-07-22T11:04:12;100992.97;;;43.68;18.44
6567;BME280;3317;43.994;22.878;2022-07-22T11:06:40;100991.69;;;43.65;18.60
6567;BME280;3317;43.994;22.878;2022-07-22T11:09:10;100987.13;;;43.60;18.26
6567;BME280;3317;43.994;22.878;2022-07-22T11:11:42;100990.13;;;43.68;18.54
6567;BME280;3317;43.994;22.878;2022-07-22T11:14:14;100980.66;;;43.83;18.58
6567;BME280;3317;43.994;22.878;2022-07-22T11:16:43;100990.69;;;44.16;17.79
6567;BME280;3317;43.994;22.878;2022-07-22T11:19:10;100991.66;;;44.24;17.70
6567;BME280;3317;43.994;22.878;2022-07-22T11:21:37;100986.53;;;44.14;17.42
6567;BME280;3317;43.994;22.878;2022-07-22T11:24:07;100983.88;;;44.01;18.27
6567;BME280;3317;43.994;22.878;2022-07-22T11:26:40;100975.34;;;43.82;17.84
6567;BME280;3317;43.994;22.878;2022-07-22T11:29:08;100962.53;;;43.52;17.93
6567;BME280;3317;43.994;22.878;2022-07-22T11:31:36;100971.66;;;43.61;17.93
6567;BME280;3317;43.994;22.878;2022-07-22T11:34:08;100966.06;;;43.45;17.80
6567;BME280;3317;43.994;22.878;2022-07-22T11:36:37;100968.25;;;43.16;17.01
6567;BME280;3317;43.994;22.878;2022-07-22T11:39:10;100957.03;;;42.88;17.98
6567;BME280;3317;43.994;22.878;2022-07-22T11:41:37;100972.72;;;42.98;17.88
6567;BME280;3317;43.994;22.878;2022-07-22T11:44:07;100966.19;;;42.97;18.04
6567;BME280;3317;43.994;22.878;2022-07-22T11:46:38;100964.31;;;43.05;18.15
6567;BME280;3317;43.994;22.878;2022-07-22T11:49:09;100971.91;;;42.97;17.83
6567;BME280;3317;43.994;22.878;2022-07-22T11:51:37;100963.66;;;42.92;18.71
6567;BME280;3317;43.994;22.878;2022-07-22T11:54:05;100956.97;;;43.04;18.68
6567;BME280;3317;43.994;22.878;2022-07-22T11:56:34;100954.44;;;43.18;17.83
6567;BME280;3317;43.994;22.878;2022-07-22T11:59:03;100962.97;;;43.34;16.95
6567;BME280;3317;43.994;22.878;2022-07-22T12:01:32;100947.50;;;43.36;16.94
6567;BME280;3317;43.994;22.878;2022-07-22T12:04:02;100953.97;;;43.32;16.67
6567;BME280;3317;43.994;22.878;2022-07-22T12:06:30;100947.19;;;43.21;17.32
6567;BME280;3317;43.994;22.878;2022-07-22T12:09:04;100945.28;;;43.29;17.23
6567;BME280;3317;43.994;22.878;2022-07-22T12:11:34;100945.63;;;43.43;17.17
6567;BME280;3317;43.994;22.878;2022-07-22T12:14:07;100946.91;;;43.46;17.44
6567;BME280;3317;43.994;22.878;2022-07-22T12:16:34;100912.09;;;43.37;17.46
6567;BME280;3317;43.994;22.878;2022-07-22T12:19:04;100932.47;;;43.58;17.42
6567;BME280;3317;43.994;22.878;2022-07-22T12:21:32;100937.66;;;43.53;16.75
6567;BME280;3317;43.994;22.878;2022-07-22T12:24:02;100932.66;;;43.46;16.90
6567;BME280;3317;43.994;22.878;2022-07-22T12:26:45;100914.94;;;43.17;17.22
6567;BME280;3317;43.994;22.878;2022-07-22T12:29:20;100920.00;;;43.08;17.19
6567;BME280;3317;43.994;22.878;2022-07-22T12:31:50;100916.72;;;43.05;16.97
6567;BME280;3317;43.994;22.878;2022-07-22T12:34:28;100914.53;;;42.99;17.10
6567;BME280;3317;43.994;22.878;2022-07-22T12:36:55;100912.28;;;42.72;17.20
6567;BME280;3317;43.994;22.878;2022-07-22T12:39:23;100910.94;;;42.66;17.68
6567;BME280;3317;43.994;22.878;2022-07-22T12:41:52;100906.44;;;42.65;17.60
6567;BME280;3317;43.994;22.878;2022-07-22T12:44:21;100910.63;;;42.71;17.76
6567;BME280;3317;43.994;22.878;2022-07-22T12:46:50;100904.66;;;42.76;17.72
6567;BME280;3317;43.994;22.878;2022-07-22T12:49:19;100900.44;;;42.70;17.69
6567;BME280;3317;43.994;22.878;2022-07-22T12:52:09;100899.44;;;42.62;17.26
6567;BME280;3317;43.994;22.878;2022-07-22T12:54:37;100886.72;;;42.40;17.30
6567;BME280;3317;43.994;22.878;2022-07-22T12:57:08;100899.66;;;42.21;18.16
6567;BME280;3317;43.994;22.878;2022-07-22T12:59:35;100886.06;;;42.15;18.06
6567;BME280;3317;43.994;22.878;2022-07-22T13:02:03;100882.41;;;42.14;17.84
6567;BME280;3317;43.994;22.878;2022-07-22T13:04:30;100876.72;;;42.14;18.16
6567;BME280;3317;43.994;22.878;2022-07-22T13:06:57;100889.28;;;41.97;17.76
6567;BME280;3317;43.994;22.878;2022-07-22T13:09:24;100886.50;;;41.69;17.57